Canyonlands, Utah
Current Conditions -  °F | °C
As of 2:53 PM on Monday 22 Dec 2014 (Local Time) from KCNY Reporting Station
Clear Clear  
Wind Chill: 53°   Ceiling: Unl
Heat Index: 53°   Visibility: 10mi
Dew Point: 25°   Wind: 32mph
Humidity: 34%   Direction: 300°WNW
Pressure: 29.77"   Gusts: 40mph
Location:  38.6903°N, 109.256°W
Report Text: KCNY 222153Z AUTO 30028G35KT 10SM CLR 12/M04 A2977 RMK AO2 PK WND 30035/2138 SLP074 T01171039
Loading
Personal Weather Stations






























Interactive Weather Map New forecast layout! Learn more

10-Day Weather Forecast

Advertisements
Track Severe Weather on mobile